sensor_id;sensor_type;location;lat;lon;timestamp;temperature;humidity
25582;DHT22;13462;50.764;4.332;2023-05-20T00:00:56;12.80;99.90
25582;DHT22;13462;50.764;4.332;2023-05-20T00:03:21;12.80;99.90
25582;DHT22;13462;50.764;4.332;2023-05-20T00:05:47;12.80;99.90
25582;DHT22;13462;50.764;4.332;2023-05-20T00:08:13;12.80;99.90
25582;DHT22;13462;50.764;4.332;2023-05-20T00:10:39;12.80;99.90
25582;DHT22;13462;50.764;4.332;2023-05-20T00:13:06;12.90;99.90
25582;DHT22;13462;50.764;4.332;2023-05-20T00:15:32;12.90;99.90
25582;DHT22;13462;50.764;4.332;2023-05-20T00:18:00;12.90;99.90
25582;DHT22;13462;50.764;4.332;2023-05-20T00:20:26;12.90;99.90
25582;DHT22;13462;50.764;4.332;2023-05-20T00:22:52;12.90;99.90
25582;DHT22;13462;50.764;4.332;2023-05-20T00:25:17;12.90;99.90
25582;DHT22;13462;50.764;4.332;2023-05-20T00:27:43;12.90;99.90
25582;DHT22;13462;50.764;4.332;2023-05-20T00:30:09;12.90;99.90
25582;DHT22;13462;50.764;4.332;2023-05-20T00:32:35;12.90;99.90
25582;DHT22;13462;50.764;4.332;2023-05-20T00:35:01;12.80;99.90
25582;DHT22;13462;50.764;4.332;2023-05-20T00:37:27;12.80;99.90
25582;DHT22;13462;50.764;4.332;2023-05-20T00:39:53;12.80;99.90
25582;DHT22;13462;50.764;4.332;2023-05-20T00:42:23;12.80;99.90
25582;DHT22;13462;50.764;4.332;2023-05-20T00:44:49;12.80;99.90
25582;DHT22;13462;50.764;4.332;2023-05-20T00:47:17;12.70;99.90
25582;DHT22;13462;50.764;4.332;2023-05-20T00:49:47;12.70;99.90
25582;DHT22;13462;50.764;4.332;2023-05-20T00:52:13;12.60;99.90
25582;DHT22;13462;50.764;4.332;2023-05-20T00:54:40;12.60;99.90
25582;DHT22;13462;50.764;4.332;2023-05-20T00:57:06;12.50;99.90
25582;DHT22;13462;50.764;4.332;2023-05-20T00:59:35;12.50;99.90
25582;DHT22;13462;50.764;4.332;2023-05-20T01:02:02;12.50;99.90
25582;DHT22;13462;50.764;4.332;2023-05-20T01:04:29;12.40;99.90
25582;DHT22;13462;50.764;4.332;2023-05-20T01:06:55;12.30;99.90
25582;DHT22;13462;50.764;4.332;2023-05-20T01:09:22;12.40;99.90
25582;DHT22;13462;50.764;4.332;2023-05-20T01:12:53;12.40;99.90
25582;DHT22;13462;50.764;4.332;2023-05-20T01:14:48;12.50;99.90
25582;DHT22;13462;50.764;4.332;2023-05-20T01:17:15;12.40;99.90
25582;DHT22;13462;50.764;4.332;2023-05-20T01:19:46;12.40;99.90
25582;DHT22;13462;50.764;4.332;2023-05-20T01:22:14;12.40;99.90
25582;DHT22;13462;50.764;4.332;2023-05-20T01:24:40;12.30;99.90
25582;DHT22;13462;50.764;4.332;2023-05-20T01:27:10;12.30;99.90
25582;DHT22;13462;50.764;4.332;2023-05-20T01:29:38;12.30;99.90
25582;DHT22;13462;50.764;4.332;2023-05-20T01:32:11;12.30;99.90
25582;DHT22;13462;50.764;4.332;2023-05-20T01:34:40;12.20;99.90
25582;DHT22;13462;50.764;4.332;2023-05-20T01:37:07;12.10;99.90
25582;DHT22;13462;50.764;4.332;2023-05-20T01:39:35;12.10;99.90
25582;DHT22;13462;50.764;4.332;2023-05-20T01:42:03;12.10;99.90
25582;DHT22;13462;50.764;4.332;2023-05-20T01:44:29;12.10;99.90
25582;DHT22;13462;50.764;4.332;2023-05-20T01:46:55;12.10;99.90
25582;DHT22;13462;50.764;4.332;2023-05-20T01:49:20;12.00;99.90
25582;DHT22;13462;50.764;4.332;2023-05-20T01:51:46;12.00;99.90
25582;DHT22;13462;50.764;4.332;2023-05-20T01:54:12;12.10;99.90
25582;DHT22;13462;50.764;4.332;2023-05-20T01:56:37;12.10;99.90
25582;DHT22;13462;50.764;4.332;2023-05-20T01:59:03;12.00;99.90
25582;DHT22;13462;50.764;4.332;2023-05-20T02:01:28;12.00;99.90
25582;DHT22;13462;50.764;4.332;2023-05-20T02:03:54;12.10;99.90
25582;DHT22;13462;50.764;4.332;2023-05-20T02:06:20;12.00;99.90
25582;DHT22;13462;50.764;4.332;2023-05-20T02:08:45;12.00;99.90
25582;DHT22;13462;50.764;4.332;2023-05-20T02:11:11;11.90;99.90
25582;DHT22;13462;50.764;4.332;2023-05-20T02:13:37;12.00;99.90
25582;DHT22;13462;50.764;4.332;2023-05-20T02:16:03;12.00;99.90
25582;DHT22;13462;50.764;4.332;2023-05-20T02:18:29;11.90;99.90
25582;DHT22;13462;50.764;4.332;2023-05-20T02:20:54;11.80;99.90
25582;DHT22;13462;50.764;4.332;2023-05-20T02:23:20;11.80;99.90
25582;DHT22;13462;50.764;4.332;2023-05-20T02:25:46;11.90;99.90
25582;DHT22;13462;50.764;4.332;2023-05-20T02:28:11;11.80;99.90
25582;DHT22;13462;50.764;4.332;2023-05-20T02:30:38;11.80;99.90
25582;DHT22;13462;50.764;4.332;2023-05-20T02:33:03;11.80;99.90
25582;DHT22;13462;50.764;4.332;2023-05-20T02:35:29;11.80;99.90
25582;DHT22;13462;50.764;4.332;2023-05-20T02:37:55;11.80;99.90
25582;DHT22;13462;50.764;4.332;2023-05-20T02:40:21;11.80;99.90
25582;DHT22;13462;50.764;4.332;2023-05-20T02:42:47;11.70;99.90
25582;DHT22;13462;50.764;4.332;2023-05-20T02:45:13;11.80;99.90
25582;DHT22;13462;50.764;4.332;2023-05-20T02:47:38;11.80;99.90
25582;DHT22;13462;50.764;4.332;2023-05-20T02:50:04;11.70;99.90
25582;DHT22;13462;50.764;4.332;2023-05-20T02:52:31;11.70;99.90
25582;DHT22;13462;50.764;4.332;2023-05-20T02:54:57;11.70;99.90
25582;DHT22;13462;50.764;4.332;2023-05-20T02:57:23;11.70;99.90
25582;DHT22;13462;50.764;4.332;2023-05-20T02:59:48;11.70;99.90
25582;DHT22;13462;50.764;4.332;2023-05-20T03:02:14;11.60;99.90
25582;DHT22;13462;50.764;4.332;2023-05-20T03:04:39;11.60;99.90
25582;DHT22;13462;50.764;4.332;2023-05-20T03:07:06;11.60;99.90
25582;DHT22;13462;50.764;4.332;2023-05-20T03:09:34;11.50;99.90
25582;DHT22;13462;50.764;4.332;2023-05-20T03:12:00;11.50;99.90
25582;DHT22;13462;50.764;4.332;2023-05-20T03:14:26;11.50;99.90
25582;DHT22;13462;50.764;4.332;2023-05-20T03:16:53;11.50;99.90
25582;DHT22;13462;50.764;4.332;2023-05-20T03:19:20;11.40;99.90
25582;DHT22;13462;50.764;4.332;2023-05-20T03:21:46;11.40;99.90
25582;DHT22;13462;50.764;4.332;2023-05-20T03:24:11;11.30;99.90
25582;DHT22;13462;50.764;4.332;2023-05-20T03:26:37;11.30;99.90
25582;DHT22;13462;50.764;4.332;2023-05-20T03:29:08;11.20;99.90
25582;DHT22;13462;50.764;4.332;2023-05-20T03:31:34;11.20;99.90
25582;DHT22;13462;50.764;4.332;2023-05-20T03:33:59;11.20;99.90
25582;DHT22;13462;50.764;4.332;2023-05-20T03:36:25;11.20;99.90
25582;DHT22;13462;50.764;4.332;2023-05-20T03:38:51;11.20;99.90
25582;DHT22;13462;50.764;4.332;2023-05-20T03:41:16;11.10;99.90
25582;DHT22;13462;50.764;4.332;2023-05-20T03:43:42;11.20;99.90
25582;DHT22;13462;50.764;4.332;2023-05-20T03:46:08;11.20;99.90
25582;DHT22;13462;50.764;4.332;2023-05-20T03:48:33;11.10;99.90
25582;DHT22;13462;50.764;4.332;2023-05-20T03:50:59;11.10;99.90
25582;DHT22;13462;50.764;4.332;2023-05-20T03:53:26;11.00;99.90
25582;DHT22;13462;50.764;4.332;2023-05-20T03:55:52;11.00;99.90
25582;DHT22;13462;50.764;4.332;2023-05-20T03:58:17;10.90;99.90
25582;DHT22;13462;50.764;4.332;2023-05-20T04:00:46;11.00;99.90
25582;DHT22;13462;50.764;4.332;2023-05-20T04:03:13;10.90;99.90
25582;DHT22;13462;50.764;4.332;2023-05-20T04:05:39;10.90;99.90
25582;DHT22;13462;50.764;4.332;2023-05-20T04:08:04;10.90;99.90
25582;DHT22;13462;50.764;4.332;2023-05-20T04:10:30;10.90;99.90
25582;DHT22;13462;50.764;4.332;2023-05-20T04:12:57;10.90;99.90
25582;DHT22;13462;50.764;4.332;2023-05-20T04:15:22;10.90;99.90
25582;DHT22;13462;50.764;4.332;2023-05-20T04:17:49;10.90;99.90
25582;DHT22;13462;50.764;4.332;2023-05-20T04:20:17;11.00;99.90
25582;DHT22;13462;50.764;4.332;2023-05-20T04:22:43;11.00;99.90
25582;DHT22;13462;50.764;4.332;2023-05-20T04:25:09;10.90;99.90
25582;DHT22;13462;50.764;4.332;2023-05-20T04:27:35;10.90;99.90
25582;DHT22;13462;50.764;4.332;2023-05-20T04:30:05;11.00;99.90
25582;DHT22;13462;50.764;4.332;2023-05-20T04:32:31;11.00;99.90
25582;DHT22;13462;50.764;4.332;2023-05-20T04:34:58;11.10;99.90
25582;DHT22;13462;50.764;4.332;2023-05-20T04:37:26;11.20;99.90
25582;DHT22;13462;50.764;4.332;2023-05-20T04:39:52;11.20;99.90
25582;DHT22;13462;50.764;4.332;2023-05-20T04:42:18;11.20;99.90
25582;DHT22;13462;50.764;4.332;2023-05-20T04:44:46;11.20;99.90
25582;DHT22;13462;50.764;4.332;2023-05-20T04:47:13;11.30;99.90
25582;DHT22;13462;50.764;4.332;2023-05-20T04:49:39;11.30;99.90
25582;DHT22;13462;50.764;4.332;2023-05-20T04:52:04;11.40;99.90
25582;DHT22;13462;50.764;4.332;2023-05-20T04:54:31;11.50;99.90
25582;DHT22;13462;50.764;4.332;2023-05-20T04:57:00;11.50;99.90
25582;DHT22;13462;50.764;4.332;2023-05-20T04:59:25;11.70;99.90
25582;DHT22;13462;50.764;4.332;2023-05-20T05:01:51;11.70;99.90
25582;DHT22;13462;50.764;4.332;2023-05-20T05:04:17;11.80;99.90
25582;DHT22;13462;50.764;4.332;2023-05-20T05:06:42;11.90;99.90
25582;DHT22;13462;50.764;4.332;2023-05-20T05:09:08;11.90;99.90
25582;DHT22;13462;50.764;4.332;2023-05-20T05:11:34;12.00;99.90
25582;DHT22;13462;50.764;4.332;2023-05-20T05:14:00;12.10;99.90
25582;DHT22;13462;50.764;4.332;2023-05-20T05:16:25;12.10;99.90
25582;DHT22;13462;50.764;4.332;2023-05-20T05:18:51;12.20;99.90
25582;DHT22;13462;50.764;4.332;2023-05-20T05:21:16;12.30;99.90
25582;DHT22;13462;50.764;4.332;2023-05-20T05:23:42;12.40;99.90
25582;DHT22;13462;50.764;4.332;2023-05-20T05:26:08;12.40;99.90
25582;DHT22;13462;50.764;4.332;2023-05-20T05:28:33;12.50;99.90
25582;DHT22;13462;50.764;4.332;2023-05-20T05:30:59;12.60;99.90
25582;DHT22;13462;50.764;4.332;2023-05-20T05:33:26;12.70;99.90
25582;DHT22;13462;50.764;4.332;2023-05-20T05:35:52;12.60;99.90
25582;DHT22;13462;50.764;4.332;2023-05-20T05:38:18;12.70;99.90
25582;DHT22;13462;50.764;4.332;2023-05-20T05:40:43;12.70;99.90
25582;DHT22;13462;50.764;4.332;2023-05-20T05:43:09;12.70;99.90
25582;DHT22;13462;50.764;4.332;2023-05-20T05:45:35;12.80;99.90
25582;DHT22;13462;50.764;4.332;2023-05-20T05:48:00;12.90;99.90
25582;DHT22;13462;50.764;4.332;2023-05-20T05:50:26;13.30;99.90
25582;DHT22;13462;50.764;4.332;2023-05-20T05:52:52;14.10;99.90
25582;DHT22;13462;50.764;4.332;2023-05-20T05:55:17;15.10;99.90
25582;DHT22;13462;50.764;4.332;2023-05-20T05:57:43;16.30;99.90
25582;DHT22;13462;50.764;4.332;2023-05-20T06:00:09;16.70;99.90
25582;DHT22;13462;50.764;4.332;2023-05-20T06:02:35;16.90;99.90
25582;DHT22;13462;50.764;4.332;2023-05-20T06:05:04;17.30;99.90
25582;DHT22;13462;50.764;4.332;2023-05-20T06:07:30;17.20;99.90
25582;DHT22;13462;50.764;4.332;2023-05-20T06:09:56;17.50;99.90
25582;DHT22;13462;50.764;4.332;2023-05-20T06:12:22;17.90;99.90
25582;DHT22;13462;50.764;4.332;2023-05-20T06:14:47;18.70;99.90
25582;DHT22;13462;50.764;4.332;2023-05-20T06:17:13;19.40;98.70
25582;DHT22;13462;50.764;4.332;2023-05-20T06:19:39;19.60;98.00
25582;DHT22;13462;50.764;4.332;2023-05-20T06:22:05;20.00;97.20
25582;DHT22;13462;50.764;4.332;2023-05-20T06:24:30;20.10;96.40
25582;DHT22;13462;50.764;4.332;2023-05-20T06:26:56;20.70;95.70
25582;DHT22;13462;50.764;4.332;2023-05-20T06:29:22;21.70;94.00
25582;DHT22;13462;50.764;4.332;2023-05-20T06:31:48;22.00;93.20
25582;DHT22;13462;50.764;4.332;2023-05-20T06:34:13;22.20;91.20
25582;DHT22;13462;50.764;4.332;2023-05-20T06:36:39;22.30;91.40
25582;DHT22;13462;50.764;4.332;2023-05-20T06:39:04;22.90;91.00
25582;DHT22;13462;50.764;4.332;2023-05-20T06:41:35;22.70;90.10
25582;DHT22;13462;50.764;4.332;2023-05-20T06:44:01;22.50;89.70
25582;DHT22;13462;50.764;4.332;2023-05-20T06:46:27;23.00;89.20
25582;DHT22;13462;50.764;4.332;2023-05-20T06:48:52;23.10;87.90
25582;DHT22;13462;50.764;4.332;2023-05-20T06:51:18;23.50;86.80
25582;DHT22;13462;50.764;4.332;2023-05-20T06:53:44;23.10;86.10
25582;DHT22;13462;50.764;4.332;2023-05-20T06:56:09;22.60;87.30
25582;DHT22;13462;50.764;4.332;2023-05-20T06:58:35;22.40;88.50
25582;DHT22;13462;50.764;4.332;2023-05-20T07:01:01;22.10;88.70
25582;DHT22;13462;50.764;4.332;2023-05-20T07:03:26;21.50;90.00
25582;DHT22;13462;50.764;4.332;2023-05-20T07:05:52;20.70;92.00
25582;DHT22;13462;50.764;4.332;2023-05-20T07:08:17;20.50;92.70
25582;DHT22;13462;50.764;4.332;2023-05-20T07:10:44;20.10;92.40
25582;DHT22;13462;50.764;4.332;2023-05-20T07:13:10;19.70;93.20
25582;DHT22;13462;50.764;4.332;2023-05-20T07:15:35;19.30;93.70
25582;DHT22;13462;50.764;4.332;2023-05-20T07:18:01;18.90;95.00
25582;DHT22;13462;50.764;4.332;2023-05-20T07:20:27;18.50;95.10
25582;DHT22;13462;50.764;4.332;2023-05-20T07:22:52;18.20;96.30
25582;DHT22;13462;50.764;4.332;2023-05-20T07:25:18;18.00;96.40
25582;DHT22;13462;50.764;4.332;2023-05-20T07:27:44;17.80;96.80
25582;DHT22;13462;50.764;4.332;2023-05-20T07:30:10;18.00;97.70
25582;DHT22;13462;50.764;4.332;2023-05-20T07:32:36;18.20;98.00
25582;DHT22;13462;50.764;4.332;2023-05-20T07:35:01;19.10;96.70
25582;DHT22;13462;50.764;4.332;2023-05-20T07:37:27;20.10;94.40
25582;DHT22;13462;50.764;4.332;2023-05-20T07:39:53;20.80;93.60
25582;DHT22;13462;50.764;4.332;2023-05-20T07:42:18;21.80;91.30
25582;DHT22;13462;50.764;4.332;2023-05-20T07:44:44;22.60;90.20
25582;DHT22;13462;50.764;4.332;2023-05-20T07:47:09;23.60;87.70
25582;DHT22;13462;50.764;4.332;2023-05-20T07:49:35;23.90;85.90
25582;DHT22;13462;50.764;4.332;2023-05-20T07:52:01;23.60;83.40
25582;DHT22;13462;50.764;4.332;2023-05-20T07:54:26;23.80;85.00
25582;DHT22;13462;50.764;4.332;2023-05-20T07:56:52;23.40;82.90
25582;DHT22;13462;50.764;4.332;2023-05-20T07:59:17;24.00;83.20
25582;DHT22;13462;50.764;4.332;2023-05-20T08:01:43;24.20;81.60
25582;DHT22;13462;50.764;4.332;2023-05-20T08:04:09;24.60;80.20
25582;DHT22;13462;50.764;4.332;2023-05-20T08:06:34;25.10;80.00
25582;DHT22;13462;50.764;4.332;2023-05-20T08:09:01;25.50;77.10
25582;DHT22;13462;50.764;4.332;2023-05-20T08:11:27;26.00;76.30
25582;DHT22;13462;50.764;4.332;2023-05-20T08:13:52;26.70;73.90
25582;DHT22;13462;50.764;4.332;2023-05-20T08:16:20;26.60;72.80
25582;DHT22;13462;50.764;4.332;2023-05-20T08:18:46;26.90;73.40
25582;DHT22;13462;50.764;4.332;2023-05-20T08:21:11;27.70;72.30
25582;DHT22;13462;50.764;4.332;2023-05-20T08:23:38;28.20;70.70
25582;DHT22;13462;50.764;4.332;2023-05-20T08:26:04;27.70;68.10
25582;DHT22;13462;50.764;4.332;2023-05-20T08:28:30;27.20;67.40
25582;DHT22;13462;50.764;4.332;2023-05-20T08:30:56;26.70;70.30
25582;DHT22;13462;50.764;4.332;2023-05-20T08:33:23;27.00;67.50
25582;DHT22;13462;50.764;4.332;2023-05-20T08:35:48;25.90;69.60
25582;DHT22;13462;50.764;4.332;2023-05-20T08:38:14;25.90;69.00
25582;DHT22;13462;50.764;4.332;2023-05-20T08:40:40;25.70;71.30
25582;DHT22;13462;50.764;4.332;2023-05-20T08:43:06;26.10;68.10
25582;DHT22;13462;50.764;4.332;2023-05-20T08:45:33;26.10;68.60
25582;DHT22;13462;50.764;4.332;2023-05-20T08:47:59;26.20;69.80
25582;DHT22;13462;50.764;4.332;2023-05-20T08:50:25;26.90;68.30
25582;DHT22;13462;50.764;4.332;2023-05-20T08:52:52;27.40;67.40
25582;DHT22;13462;50.764;4.332;2023-05-20T08:55:24;27.00;66.20
25582;DHT22;13462;50.764;4.332;2023-05-20T08:57:51;26.20;67.20
25582;DHT22;13462;50.764;4.332;2023-05-20T09:00:19;26.30;66.90
25582;DHT22;13462;50.764;4.332;2023-05-20T09:02:46;25.80;68.40
25582;DHT22;13462;50.764;4.332;2023-05-20T09:05:11;25.30;69.60
25582;DHT22;13462;50.764;4.332;2023-05-20T09:07:37;24.80;73.00
25582;DHT22;13462;50.764;4.332;2023-05-20T09:10:04;25.80;71.20
25582;DHT22;13462;50.764;4.332;2023-05-20T09:12:29;26.20;69.00
25582;DHT22;13462;50.764;4.332;2023-05-20T09:14:55;26.10;68.40
25582;DHT22;13462;50.764;4.332;2023-05-20T09:17:22;26.50;68.90
25582;DHT22;13462;50.764;4.332;2023-05-20T09:19:52;27.00;66.70
25582;DHT22;13462;50.764;4.332;2023-05-20T09:22:26;28.10;66.40
25582;DHT22;13462;50.764;4.332;2023-05-20T09:24:53;28.50;63.10
25582;DHT22;13462;50.764;4.332;2023-05-20T09:27:19;28.50;63.70
25582;DHT22;13462;50.764;4.332;2023-05-20T09:29:48;28.00;63.40
25582;DHT22;13462;50.764;4.332;2023-05-20T09:32:15;27.00;63.50
25582;DHT22;13462;50.764;4.332;2023-05-20T09:34:41;26.80;66.70
25582;DHT22;13462;50.764;4.332;2023-05-20T09:37:08;27.40;67.00
25582;DHT22;13462;50.764;4.332;2023-05-20T09:42:20;26.90;65.00
25582;DHT22;13462;50.764;4.332;2023-05-20T09:44:47;26.70;64.20
25582;DHT22;13462;50.764;4.332;2023-05-20T09:47:15;26.20;64.60
25582;DHT22;13462;50.764;4.332;2023-05-20T09:49:42;26.60;66.40
25582;DHT22;13462;50.764;4.332;2023-05-20T09:52:11;26.80;65.40
25582;DHT22;13462;50.764;4.332;2023-05-20T09:54:38;26.90;64.90
25582;DHT22;13462;50.764;4.332;2023-05-20T09:57:04;27.50;64.20
25582;DHT22;13462;50.764;4.332;2023-05-20T09:59:31;27.40;64.80
25582;DHT22;13462;50.764;4.332;2023-05-20T10:01:57;27.60;63.40
25582;DHT22;13462;50.764;4.332;2023-05-20T10:04:24;27.80;62.70
25582;DHT22;13462;50.764;4.332;2023-05-20T10:12:38;26.60;63.60
25582;DHT22;13462;50.764;4.332;2023-05-20T10:20:17;27.10;63.20
25582;DHT22;13462;50.764;4.332;2023-05-20T10:22:43;27.70;61.50
25582;DHT22;13462;50.764;4.332;2023-05-20T10:25:12;27.40;61.60
25582;DHT22;13462;50.764;4.332;2023-05-20T10:27:49;27.20;63.50
25582;DHT22;13462;50.764;4.332;2023-05-20T10:30:16;27.60;62.70
25582;DHT22;13462;50.764;4.332;2023-05-20T10:32:52;27.70;61.20
25582;DHT22;13462;50.764;4.332;2023-05-20T10:35:21;28.30;64.60
25582;DHT22;13462;50.764;4.332;2023-05-20T10:37:47;29.20;63.60
25582;DHT22;13462;50.764;4.332;2023-05-20T10:40:14;29.10;60.00
25582;DHT22;13462;50.764;4.332;2023-05-20T10:42:40;29.20;60.60
25582;DHT22;13462;50.764;4.332;2023-05-20T10:45:07;29.00;59.60
25582;DHT22;13462;50.764;4.332;2023-05-20T10:47:34;29.10;61.30
25582;DHT22;13462;50.764;4.332;2023-05-20T10:49:59;29.20;59.90
25582;DHT22;13462;50.764;4.332;2023-05-20T10:52:26;28.70;60.40
25582;DHT22;13462;50.764;4.332;2023-05-20T10:54:56;29.00;62.50
25582;DHT22;13462;50.764;4.332;2023-05-20T10:57:24;29.70;59.00
25582;DHT22;13462;50.764;4.332;2023-05-20T10:59:50;28.60;59.50
25582;DHT22;13462;50.764;4.332;2023-05-20T11:02:17;28.50;62.30
25582;DHT22;13462;50.764;4.332;2023-05-20T11:04:43;28.70;62.50
25582;DHT22;13462;50.764;4.332;2023-05-20T11:07:09;28.60;59.60
25582;DHT22;13462;50.764;4.332;2023-05-20T11:09:34;28.90;60.40
25582;DHT22;13462;50.764;4.332;2023-05-20T11:12:00;29.40;60.00
25582;DHT22;13462;50.764;4.332;2023-05-20T11:14:29;29.30;59.50
25582;DHT22;13462;50.764;4.332;2023-05-20T11:16:57;29.90;59.00
25582;DHT22;13462;50.764;4.332;2023-05-20T11:19:23;29.50;57.40
25582;DHT22;13462;50.764;4.332;2023-05-20T11:21:49;29.40;59.30
25582;DHT22;13462;50.764;4.332;2023-05-20T11:24:24;29.60;59.50
25582;DHT22;13462;50.764;4.332;2023-05-20T11:26:50;30.40;59.60
25582;DHT22;13462;50.764;4.332;2023-05-20T11:29:17;30.30;58.10
25582;DHT22;13462;50.764;4.332;2023-05-20T11:31:46;30.00;61.00
25582;DHT22;13462;50.764;4.332;2023-05-20T11:34:11;29.20;57.90
25582;DHT22;13462;50.764;4.332;2023-05-20T11:36:41;28.60;60.00
25582;DHT22;13462;50.764;4.332;2023-05-20T11:39:09;29.10;61.90
25582;DHT22;13462;50.764;4.332;2023-05-20T11:41:36;29.10;59.60
25582;DHT22;13462;50.764;4.332;2023-05-20T11:44:01;28.60;59.70
25582;DHT22;13462;50.764;4.332;2023-05-20T11:46:27;28.50;62.00
25582;DHT22;13462;50.764;4.332;2023-05-20T11:48:54;28.30;60.80
25582;DHT22;13462;50.764;4.332;2023-05-20T11:51:26;27.50;62.40
25582;DHT22;13462;50.764;4.332;2023-05-20T11:53:53;27.70;61.70
25582;DHT22;13462;50.764;4.332;2023-05-20T11:56:23;28.70;63.70
25582;DHT22;13462;50.764;4.332;2023-05-20T11:58:49;28.40;61.00
25582;DHT22;13462;50.764;4.332;2023-05-20T12:01:14;27.70;63.00
25582;DHT22;13462;50.764;4.332;2023-05-20T12:03:40;27.50;64.60
25582;DHT22;13462;50.764;4.332;2023-05-20T12:06:06;27.70;63.00
25582;DHT22;13462;50.764;4.332;2023-05-20T12:08:31;27.30;62.40
25582;DHT22;13462;50.764;4.332;2023-05-20T12:10:57;27.20;64.60
25582;DHT22;13462;50.764;4.332;2023-05-20T12:13:23;27.50;68.10
25582;DHT22;13462;50.764;4.332;2023-05-20T12:15:48;28.00;64.70
25582;DHT22;13462;50.764;4.332;2023-05-20T12:18:14;27.90;62.50
25582;DHT22;13462;50.764;4.332;2023-05-20T12:20:41;27.20;64.70
25582;DHT22;13462;50.764;4.332;2023-05-20T12:23:07;27.00;67.90
25582;DHT22;13462;50.764;4.332;2023-05-20T12:25:32;27.20;64.50
25582;DHT22;13462;50.764;4.332;2023-05-20T12:28:00;27.40;67.00
25582;DHT22;13462;50.764;4.332;2023-05-20T12:30:25;27.40;66.20
25582;DHT22;13462;50.764;4.332;2023-05-20T12:32:51;27.60;65.70
25582;DHT22;13462;50.764;4.332;2023-05-20T12:35:34;27.50;65.40
25582;DHT22;13462;50.764;4.332;2023-05-20T12:38:00;27.50;66.00
25582;DHT22;13462;50.764;4.332;2023-05-20T12:40:26;27.60;64.20
25582;DHT22;13462;50.764;4.332;2023-05-20T12:42:51;27.90;63.90
25582;DHT22;13462;50.764;4.332;2023-05-20T12:45:17;28.00;65.90
25582;DHT22;13462;50.764;4.332;2023-05-20T12:47:43;28.00;65.30
25582;DHT22;13462;50.764;4.332;2023-05-20T12:50:09;27.80;62.20
25582;DHT22;13462;50.764;4.332;2023-05-20T12:52:35;27.20;64.30
25582;DHT22;13462;50.764;4.332;2023-05-20T12:55:00;26.80;69.60
25582;DHT22;13462;50.764;4.332;2023-05-20T12:57:26;27.00;70.50
25582;DHT22;13462;50.764;4.332;2023-05-20T12:59:52;27.50;67.10
25582;DHT22;13462;50.764;4.332;2023-05-20T13:02:18;27.50;67.80
25582;DHT22;13462;50.764;4.332;2023-05-20T13:04:43;27.30;66.50
25582;DHT22;13462;50.764;4.332;2023-05-20T13:07:09;27.00;66.70
25582;DHT22;13462;50.764;4.332;2023-05-20T13:09:35;26.80;69.80
25582;DHT22;13462;50.764;4.332;2023-05-20T13:12:01;26.90;69.50
25582;DHT22;13462;50.764;4.332;2023-05-20T13:14:26;26.80;68.10
25582;DHT22;13462;50.764;4.332;2023-05-20T13:16:52;27.10;67.70
25582;DHT22;13462;50.764;4.332;2023-05-20T13:19:22;27.40;69.30
25582;DHT22;13462;50.764;4.332;2023-05-20T13:21:50;27.70;65.10
25582;DHT22;13462;50.764;4.332;2023-05-20T13:24:17;27.90;64.60
25582;DHT22;13462;50.764;4.332;2023-05-20T13:26:42;27.60;66.40
25582;DHT22;13462;50.764;4.332;2023-05-20T13:29:08;27.10;67.10
25582;DHT22;13462;50.764;4.332;2023-05-20T13:31:34;26.20;66.50
25582;DHT22;13462;50.764;4.332;2023-05-20T13:34:00;25.60;70.50
25582;DHT22;13462;50.764;4.332;2023-05-20T13:36:26;25.20;68.90
25582;DHT22;13462;50.764;4.332;2023-05-20T13:38:52;24.90;70.90
25582;DHT22;13462;50.764;4.332;2023-05-20T13:41:18;24.70;71.20
25582;DHT22;13462;50.764;4.332;2023-05-20T13:43:43;24.80;71.40
25582;DHT22;13462;50.764;4.332;2023-05-20T13:46:09;24.70;74.00
25582;DHT22;13462;50.764;4.332;2023-05-20T13:48:35;24.50;70.80
25582;DHT22;13462;50.764;4.332;2023-05-20T13:51:00;24.20;72.70
25582;DHT22;13462;50.764;4.332;2023-05-20T13:53:27;23.90;73.20
25582;DHT22;13462;50.764;4.332;2023-05-20T13:55:52;23.90;75.50
25582;DHT22;13462;50.764;4.332;2023-05-20T13:58:18;23.80;76.20
25582;DHT22;13462;50.764;4.332;2023-05-20T14:00:44;23.80;76.00
25582;DHT22;13462;50.764;4.332;2023-05-20T14:03:10;23.80;75.90
25582;DHT22;13462;50.764;4.332;2023-05-20T14:05:36;23.50;74.80
25582;DHT22;13462;50.764;4.332;2023-05-20T14:08:02;23.10;75.90
25582;DHT22;13462;50.764;4.332;2023-05-20T14:10:27;22.80;75.90
25582;DHT22;13462;50.764;4.332;2023-05-20T14:12:53;22.60;75.80
25582;DHT22;13462;50.764;4.332;2023-05-20T14:15:19;22.30;77.20
25582;DHT22;13462;50.764;4.332;2023-05-20T14:17:46;22.20;78.50
25582;DHT22;13462;50.764;4.332;2023-05-20T14:20:12;22.20;80.00
25582;DHT22;13462;50.764;4.332;2023-05-20T14:22:37;22.20;79.20
25582;DHT22;13462;50.764;4.332;2023-05-20T14:25:03;22.10;79.20
25582;DHT22;13462;50.764;4.332;2023-05-20T14:27:29;22.20;80.80
25582;DHT22;13462;50.764;4.332;2023-05-20T14:29:55;22.30;81.30
25582;DHT22;13462;50.764;4.332;2023-05-20T14:32:20;22.40;82.10
25582;DHT22;13462;50.764;4.332;2023-05-20T14:34:46;22.30;79.60
25582;DHT22;13462;50.764;4.332;2023-05-20T14:37:11;22.20;80.50
25582;DHT22;13462;50.764;4.332;2023-05-20T14:39:40;22.20;80.60
25582;DHT22;13462;50.764;4.332;2023-05-20T14:42:06;22.20;80.60
25582;DHT22;13462;50.764;4.332;2023-05-20T14:44:32;22.30;81.60
25582;DHT22;13462;50.764;4.332;2023-05-20T14:46:57;22.20;80.60
25582;DHT22;13462;50.764;4.332;2023-05-20T14:49:23;22.20;81.70
25582;DHT22;13462;50.764;4.332;2023-05-20T14:51:49;22.30;80.10
25582;DHT22;13462;50.764;4.332;2023-05-20T14:54:15;22.30;81.70
25582;DHT22;13462;50.764;4.332;2023-05-20T14:56:44;22.30;80.60
25582;DHT22;13462;50.764;4.332;2023-05-20T14:59:10;22.20;81.70
25582;DHT22;13462;50.764;4.332;2023-05-20T15:01:35;22.20;83.70
25582;DHT22;13462;50.764;4.332;2023-05-20T15:04:02;22.20;82.80
25582;DHT22;13462;50.764;4.332;2023-05-20T15:06:29;22.10;83.40
25582;DHT22;13462;50.764;4.332;2023-05-20T15:08:55;22.10;83.50
25582;DHT22;13462;50.764;4.332;2023-05-20T15:11:21;21.80;82.10
25582;DHT22;13462;50.764;4.332;2023-05-20T15:13:47;21.70;84.00
25582;DHT22;13462;50.764;4.332;2023-05-20T15:16:13;21.80;83.70
25582;DHT22;13462;50.764;4.332;2023-05-20T15:18:38;22.00;85.20
25582;DHT22;13462;50.764;4.332;2023-05-20T15:21:04;22.00;83.10
25582;DHT22;13462;50.764;4.332;2023-05-20T15:23:29;22.10;84.30
25582;DHT22;13462;50.764;4.332;2023-05-20T15:25:55;22.20;84.40
25582;DHT22;13462;50.764;4.332;2023-05-20T15:28:23;22.50;84.00
25582;DHT22;13462;50.764;4.332;2023-05-20T15:30:53;22.60;83.70
25582;DHT22;13462;50.764;4.332;2023-05-20T15:33:18;22.50;82.20
25582;DHT22;13462;50.764;4.332;2023-05-20T15:35:44;22.50;81.80
25582;DHT22;13462;50.764;4.332;2023-05-20T15:38:10;22.40;83.70